Time;durP1;ratioP1;P1;durP2;ratioP2;P2;SDS_P1;SDS_P2;PMS_P1;PMS_P2;Temp;Humidity;BMP_temperature;BMP_pressure;BME280_temperature;BME280_humidity;BME280_pressure;Samples;Min_cycle;Max_cycle;Signal;HPM_P1;HPM_P2
2021/04/15 00:03:54;;;;;;;0.57;0.57;;;;;;;;;;10296054;28;20033;-63
2021/04/15 00:08:52;;;;;;;1.37;0.83;;;;;;;;;;10292488;28;20406;-63
2021/04/15 00:13:52;;;;;;;1.38;1.27;;;;;;;;;;10296528;28;20037;-62
2021/04/15 00:18:49;;;;;;;1.27;0.63;;;;;;;;;;10304883;28;20028;-63
2021/04/15 00:23:47;;;;;;;0.20;0.20;;;;;;;;;;10304075;28;20037;-63
2021/04/15 00:28:44;;;;;;;0.70;0.70;;;;;;;;;;10310257;28;20033;-63
2021/04/15 00:33:42;;;;;;;1.13;0.50;;;;;;;;;;10308861;28;20032;-63
2021/04/15 00:38:40;;;;;;;2.20;0.63;;;;;;;;;;10311695;28;20032;-65
2021/04/15 00:43:38;;;;;;;0.13;0.13;;;;;;;;;;10302305;28;20033;-63
2021/04/15 00:48:38;;;;;;;0.28;0.28;;;;;;;;;;10323334;28;20024;-62
2021/04/15 00:53:39;;;;;;;0.15;0.15;;;;;;;;;;10309987;28;20490;-62
2021/04/15 00:58:36;;;;;;;5.70;0.50;;;;;;;;;;10308431;28;20029;-64
2021/04/15 01:03:34;;;;;;;0.23;0.23;;;;;;;;;;10308833;28;20654;-64
2021/04/15 01:08:32;;;;;;;0.10;0.10;;;;;;;;;;10307278;28;20037;-65
2021/04/15 01:13:46;;;;;;;0.30;0.30;;;;;;;;;;10305025;28;20063;-64
2021/04/15 01:18:54;;;;;;;0.30;0.30;;;;;;;;;;10298423;28;20072;-64
2021/04/15 01:24:00;;;;;;;0.57;0.50;;;;;;;;;;10304337;28;20075;-62
2021/04/15 01:29:24;;;;;;;0.20;0.20;;;;;;;;;;10307752;28;20040;-61
2021/04/15 01:34:47;;;;;;;0.22;0.22;;;;;;;;;;10308242;28;20045;-61
2021/04/15 01:39:48;;;;;;;0.43;0.43;;;;;;;;;;10297412;28;20048;-62
2021/04/15 01:44:51;;;;;;;0.63;0.63;;;;;;;;;;10302311;28;20959;-62
2021/04/15 01:49:51;;;;;;;4.28;0.80;;;;;;;;;;10325657;28;20613;-63
2021/04/15 01:54:59;;;;;;;0.38;0.25;;;;;;;;;;10321889;28;20406;-63
2021/04/15 02:00:02;;;;;;;0.53;0.27;;;;;;;;;;10319528;28;20304;-63
2021/04/15 02:05:12;;;;;;;0.32;0.30;;;;;;;;;;10303673;28;20415;-60
2021/04/15 02:10:11;;;;;;;0.30;0.30;;;;;;;;;;10318746;28;20045;-61
2021/04/15 02:15:29;;;;;;;0.38;0.38;;;;;;;;;;10316059;28;20083;-62
2021/04/15 02:20:27;;;;;;;4.63;0.65;;;;;;;;;;10320013;28;20123;-62
2021/04/15 02:25:29;;;;;;;0.40;0.40;;;;;;;;;;10317848;28;20043;-62
2021/04/15 02:30:29;;;;;;;0.57;0.57;;;;;;;;;;10315424;28;20859;-63
2021/04/15 02:35:28;;;;;;;3.55;0.70;;;;;;;;;;10317664;28;20036;-63
2021/04/15 02:40:28;;;;;;;0.65;0.63;;;;;;;;;;10318003;28;20091;-63
2021/04/15 02:45:37;;;;;;;0.75;0.75;;;;;;;;;;10318574;28;20033;-62
2021/04/15 02:50:34;;;;;;;;;;;;;;;;;;10310381;28;20107;-62
2021/04/15 02:55:36;;;;;;;0.77;0.43;;;;;;;;;;10316344;28;19921;-63
2021/04/15 03:00:37;;;;;;;0.35;0.35;;;;;;;;;;10315479;28;20155;-62
2021/04/15 03:05:54;;;;;;;0.22;0.22;;;;;;;;;;10312769;28;20033;-62
2021/04/15 03:10:57;;;;;;;0.47;0.47;;;;;;;;;;10301826;28;20064;-62
2021/04/15 03:15:57;;;;;;;0.50;0.50;;;;;;;;;;10318517;28;20398;-63
2021/04/15 03:21:18;;;;;;;0.47;0.45;;;;;;;;;;10323080;28;20045;-62
2021/04/15 03:26:22;;;;;;;0.32;0.32;;;;;;;;;;10279884;28;20048;-60
2021/04/15 03:31:25;;;;;;;0.38;0.38;;;;;;;;;;10316562;28;20110;-60
2021/04/15 03:36:37;;;;;;;0.65;0.65;;;;;;;;;;10317494;28;20734;-62
2021/04/15 03:41:36;;;;;;;0.35;0.35;;;;;;;;;;10315448;28;20056;-62
2021/04/15 03:46:36;;;;;;;0.30;0.30;;;;;;;;;;10311753;28;20060;-62
2021/04/15 03:51:39;;;;;;;1.10;1.05;;;;;;;;;;10319117;28;20060;-63
2021/04/15 03:56:43;;;;;;;0.63;0.63;;;;;;;;;;10316736;28;20135;-63
2021/04/15 04:01:43;;;;;;;1.20;0.77;;;;;;;;;;10321497;28;20078;-61
2021/04/15 04:06:42;;;;;;;0.20;0.20;;;;;;;;;;10320702;28;20044;-63
2021/04/15 04:11:41;;;;;;;1.55;0.70;;;;;;;;;;10292267;28;20124;-62
2021/04/15 04:16:41;;;;;;;1.38;0.70;;;;;;;;;;10305061;28;20112;-62
2021/04/15 04:21:52;;;;;;;0.52;0.52;;;;;;;;;;10308174;28;20037;-63
2021/04/15 04:27:02;;;;;;;0.88;0.88;;;;;;;;;;10315060;28;20032;-63
2021/04/15 04:32:02;;;;;;;0.35;0.35;;;;;;;;;;10306008;28;20132;-64
2021/04/15 04:37:00;;;;;;;0.50;0.50;;;;;;;;;;10306571;28;20052;-62
2021/04/15 04:42:16;;;;;;;1.10;1.10;;;;;;;;;;10312184;28;20555;-63
2021/04/15 04:47:13;;;;;;;0.90;0.50;;;;;;;;;;10311580;28;20047;-63
2021/04/15 04:52:17;;;;;;;4.47;1.53;;;;;;;;;;10298207;28;20037;-64
2021/04/15 04:57:26;;;;;;;2.55;0.43;;;;;;;;;;10303940;28;20141;-64
2021/04/15 05:02:24;;;;;;;0.40;0.40;;;;;;;;;;10304585;28;20064;-63
2021/04/15 05:07:22;;;;;;;0.60;0.60;;;;;;;;;;10317841;28;20037;-64
2021/04/15 05:12:26;;;;;;;0.75;0.75;;;;;;;;;;10321309;28;20040;-65
2021/04/15 05:17:27;;;;;;;0.30;0.30;;;;;;;;;;10319895;28;20029;-64
2021/04/15 05:22:37;;;;;;;0.30;0.30;;;;;;;;;;10309856;28;20064;-64
2021/04/15 05:27:36;;;;;;;0.32;0.20;;;;;;;;;;10316278;28;20803;-63
2021/04/15 05:32:35;;;;;;;0.35;0.35;;;;;;;;;;10303233;28;20052;-62
2021/04/15 05:37:33;;;;;;;2.03;0.80;;;;;;;;;;10313308;28;20538;-63
2021/04/15 05:42:39;;;;;;;0.90;0.57;;;;;;;;;;10307645;28;20540;-62
2021/04/15 05:47:49;;;;;;;3.10;1.27;;;;;;;;;;10306779;28;20749;-62
2021/04/15 05:52:52;;;;;;;0.75;0.75;;;;;;;;;;10315138;28;20499;-61
2021/04/15 05:57:53;;;;;;;1.75;1.35;;;;;;;;;;10305597;28;20068;-62
2021/04/15 06:02:52;;;;;;;0.47;0.47;;;;;;;;;;10288963;28;20034;-64
2021/04/15 06:07:52;;;;;;;0.88;0.88;;;;;;;;;;10302281;28;20025;-64
2021/04/15 06:12:52;;;;;;;3.03;0.75;;;;;;;;;;10296015;28;20439;-64
2021/04/15 06:17:55;;;;;;;4.47;1.95;;;;;;;;;;10299563;28;20132;-64
2021/04/15 06:22:55;;;;;;;0.47;0.30;;;;;;;;;;10308869;28;20103;-63
2021/04/15 06:27:54;;;;;;;2.38;1.60;;;;;;;;;;10294822;28;20063;-63
2021/04/15 06:33:00;;;;;;;1.67;1.48;;;;;;;;;;10300236;28;20394;-63
2021/04/15 06:38:02;;;;;;;1.25;0.73;;;;;;;;;;10318510;28;20544;-63
2021/04/15 06:43:08;;;;;;;6.22;1.23;;;;;;;;;;10298025;28;20588;-64
2021/04/15 06:48:06;;;;;;;4.13;2.28;;;;;;;;;;10303896;28;20063;-61
2021/04/15 06:53:29;;;;;;;1.87;1.77;;;;;;;;;;10297088;28;20044;-61
2021/04/15 06:58:26;;;;;;;10.13;1.15;;;;;;;;;;10306375;28;20072;-64
2021/04/15 07:03:24;;;;;;;2.23;1.17;;;;;;;;;;10303238;28;20043;-63
2021/04/15 07:08:39;;;;;;;0.50;0.50;;;;;;;;;;10300377;28;20041;-61
2021/04/15 07:13:55;;;;;;;1.25;1.00;;;;;;;;;;10306328;28;20502;-63
2021/04/15 07:19:04;;;;;;;3.00;1.38;;;;;;;;;;10309085;28;20039;-64
2021/04/15 07:24:13;;;;;;;5.38;1.55;;;;;;;;;;10311556;28;20064;-62
2021/04/15 07:29:11;;;;;;;5.30;2.45;;;;;;;;;;10306555;28;20082;-60
2021/04/15 07:34:27;;;;;;;1.83;1.30;;;;;;;;;;10313101;28;20041;-62
2021/04/15 07:39:40;;;;;;;0.90;0.90;;;;;;;;;;10287549;28;20033;-61
2021/04/15 07:44:52;;;;;;;0.75;0.73;;;;;;;;;;10304353;28;20589;-62
2021/04/15 07:50:01;;;;;;;3.15;1.15;;;;;;;;;;10308693;28;20037;-61
2021/04/15 07:55:14;;;;;;;1.83;0.90;;;;;;;;;;10276872;28;20540;-62
2021/04/15 08:00:23;;;;;;;3.75;0.90;;;;;;;;;;10309507;28;20549;-62
2021/04/15 08:05:26;;;;;;;1.02;0.77;;;;;;;;;;10300574;28;20126;-61
2021/04/15 08:10:50;;;;;;;1.50;0.90;;;;;;;;;;10308676;28;20392;-61
2021/04/15 08:16:10;;;;;;;0.88;0.88;;;;;;;;;;10304033;28;20040;-62
2021/04/15 08:21:07;;;;;;;2.00;1.15;;;;;;;;;;10294296;28;20132;-62
2021/04/15 08:26:24;;;;;;;0.63;0.63;;;;;;;;;;10300547;28;20051;-61
2021/04/15 08:31:24;;;;;;;2.67;0.80;;;;;;;;;;10304685;28;20112;-62
2021/04/15 08:36:27;;;;;;;1.83;1.10;;;;;;;;;;10297792;28;20591;-62
2021/04/15 08:41:43;;;;;;;1.60;1.50;;;;;;;;;;10305154;28;20402;-62
2021/04/15 08:47:00;;;;;;;1.27;1.00;;;;;;;;;;10311941;28;20036;-62
2021/04/15 08:52:22;;;;;;;1.15;0.50;;;;;;;;;;10313654;28;20474;-62
2021/04/15 08:57:23;;;;;;;1.25;0.80;;;;;;;;;;10302322;28;20481;-61
2021/04/15 09:02:39;;;;;;;0.50;0.50;;;;;;;;;;10305656;28;20036;-62
2021/04/15 09:07:39;;;;;;;1.67;0.70;;;;;;;;;;10308349;28;20056;-62
2021/04/15 09:12:48;;;;;;;0.25;0.20;;;;;;;;;;10287079;28;20041;-62
2021/04/15 09:17:52;;;;;;;1.00;0.32;;;;;;;;;;10301101;28;20041;-62
2021/04/15 09:22:58;;;;;;;0.85;0.40;;;;;;;;;;10295558;28;20159;-60
2021/04/15 09:28:10;;;;;;;0.52;0.38;;;;;;;;;;10295058;28;20086;-62
2021/04/15 09:33:13;;;;;;;0.15;0.15;;;;;;;;;;10298963;28;20087;-61
2021/04/15 09:38:11;;;;;;;0.57;0.40;;;;;;;;;;10298912;28;20793;-62
2021/04/15 09:43:20;;;;;;;0.63;0.20;;;;;;;;;;10294653;28;20418;-62
2021/04/15 09:48:36;;;;;;;0.40;0.40;;;;;;;;;;10297240;28;20147;-63
2021/04/15 09:53:36;;;;;;;0.80;0.30;;;;;;;;;;10296855;28;20049;-62
2021/04/15 09:58:40;;;;;;;0.20;0.20;;;;;;;;;;10287345;28;20061;-62
2021/04/15 10:03:56;;;;;;;0.20;0.20;;;;;;;;;;10288695;28;20076;-62
2021/04/15 10:08:54;;;;;;;0.70;0.50;;;;;;;;;;10283904;28;20041;-62
2021/04/15 10:13:57;;;;;;;0.40;0.13;;;;;;;;;;10295384;28;20086;-63
2021/04/15 10:19:01;;;;;;;0.68;0.30;;;;;;;;;;10293873;28;20056;-62
2021/04/15 10:24:02;;;;;;;1.10;0.20;;;;;;;;;;10295344;28;20048;-62
2021/04/15 10:29:09;;;;;;;0.52;0.20;;;;;;;;;;10304527;28;20060;-65
2021/04/15 10:34:12;;;;;;;0.30;0.28;;;;;;;;;;10294021;28;20798;-63
2021/04/15 10:39:28;;;;;;;0.35;0.20;;;;;;;;;;10285714;28;20041;-62
2021/04/15 10:44:44;;;;;;;0.47;0.40;;;;;;;;;;10287798;28;20040;-63
2021/04/15 10:50:07;;;;;;;0.52;0.22;;;;;;;;;;10300551;28;20336;-62
2021/04/15 10:55:22;;;;;;;0.20;0.20;;;;;;;;;;10278378;28;20073;-64
2021/04/15 11:00:30;;;;;;;1.23;0.30;;;;;;;;;;10294568;28;20687;-64
2021/04/15 11:05:30;;;;;;;0.43;0.20;;;;;;;;;;10286912;28;20153;-64
2021/04/15 11:10:31;;;;;;;0.20;0.20;;;;;;;;;;10303681;28;20069;-64
2021/04/15 11:15:40;;;;;;;0.45;0.10;;;;;;;;;;10296128;28;20068;-64
2021/04/15 11:20:41;;;;;;;0.38;0.30;;;;;;;;;;10282795;28;20107;-63
2021/04/15 11:25:43;;;;;;;0.40;0.20;;;;;;;;;;10282758;28;20045;-64
2021/04/15 11:30:40;;;;;;;0.57;0.22;;;;;;;;;;10283501;28;20123;-63
2021/04/15 11:35:39;;;;;;;0.38;0.22;;;;;;;;;;10303819;28;20037;-63
2021/04/15 11:40:42;;;;;;;1.27;0.75;;;;;;;;;;10290294;28;20075;-63
2021/04/15 11:45:39;;;;;;;0.75;0.30;;;;;;;;;;10292017;28;20720;-63
2021/04/15 11:50:38;;;;;;;2.28;0.43;;;;;;;;;;10281617;28;20059;-63
2021/04/15 11:55:35;;;;;;;1.85;0.57;;;;;;;;;;10294508;28;21055;-63
2021/04/15 12:00:34;;;;;;;1.58;0.32;;;;;;;;;;10278173;28;21414;-63
2021/04/15 12:05:34;;;;;;;0.63;0.40;;;;;;;;;;10279755;28;20103;-62
2021/04/15 12:10:32;;;;;;;1.42;0.47;;;;;;;;;;10293754;28;20033;-62
2021/04/15 12:15:41;;;;;;;0.30;0.20;;;;;;;;;;10277626;28;20072;-63
2021/04/15 12:20:38;;;;;;;;;;;;;;;;;;10266331;28;20048;-64
2021/04/15 12:25:39;;;;;;;1.00;0.40;;;;;;;;;;10296186;28;19921;-62
2021/04/15 12:30:37;;;;;;;1.38;0.20;;;;;;;;;;10274237;28;21124;-63
2021/04/15 12:35:38;;;;;;;0.30;0.30;;;;;;;;;;10286476;28;20041;-64
2021/04/15 12:40:37;;;;;;;0.77;0.30;;;;;;;;;;10289863;28;20041;-62
2021/04/15 12:45:48;;;;;;;0.30;0.20;;;;;;;;;;10291745;28;20045;-61
2021/04/15 12:50:48;;;;;;;0.32;0.20;;;;;;;;;;10294068;28;20533;-61
2021/04/15 12:55:48;;;;;;;0.10;0.10;;;;;;;;;;10292836;28;20506;-62
2021/04/15 13:00:47;;;;;;;1.85;0.30;;;;;;;;;;10271661;28;20095;-62
2021/04/15 13:06:10;;;;;;;0.30;0.22;;;;;;;;;;10243374;28;20071;-62
2021/04/15 13:11:17;;;;;;;0.40;0.30;;;;;;;;;;10255560;28;20049;-62
2021/04/15 13:16:32;;;;;;;0.40;0.25;;;;;;;;;;10249626;28;20069;-63
2021/04/15 13:21:31;;;;;;;0.40;0.32;;;;;;;;;;10244371;28;20055;-62
2021/04/15 13:26:31;;;;;;;1.45;0.30;;;;;;;;;;10252580;28;20042;-62
2021/04/15 13:31:31;;;;;;;0.20;0.20;;;;;;;;;;10236879;28;20143;-63
2021/04/15 13:36:29;;;;;;;0.40;0.20;;;;;;;;;;10253504;28;21073;-64
2021/04/15 13:41:28;;;;;;;1.23;0.30;;;;;;;;;;10250869;28;20144;-64
2021/04/15 13:46:29;;;;;;;0.80;0.35;;;;;;;;;;10255299;28;20597;-64
2021/04/15 13:51:35;;;;;;;0.68;0.15;;;;;;;;;;10264478;28;20045;-64
2021/04/15 13:56:34;;;;;;;0.47;0.20;;;;;;;;;;10264675;28;20046;-64
2021/04/15 14:01:35;;;;;;;0.47;0.20;;;;;;;;;;10259949;28;20056;-64
2021/04/15 14:06:32;;;;;;;0.15;0.15;;;;;;;;;;10265938;28;20045;-64
2021/04/15 14:11:32;;;;;;;0.20;0.20;;;;;;;;;;10285802;28;20071;-63
2021/04/15 14:16:30;;;;;;;0.28;0.28;;;;;;;;;;10279284;28;20076;-64
2021/04/15 14:21:27;;;;;;;;;;;;;;;;;;10267261;28;20046;-64
2021/04/15 14:26:33;;;;;;;1.10;0.52;;;;;;;;;;10257686;28;19917;-64
2021/04/15 14:31:31;;;;;;;0.30;0.30;;;;;;;;;;10262534;28;20030;-64
2021/04/15 14:36:31;;;;;;;1.30;0.30;;;;;;;;;;10269772;28;20575;-63
2021/04/15 14:41:30;;;;;;;1.55;0.25;;;;;;;;;;10265403;28;20041;-62
2021/04/15 14:46:32;;;;;;;0.43;0.20;;;;;;;;;;10265902;28;20034;-62
2021/04/15 14:51:29;;;;;;;0.30;0.30;;;;;;;;;;10286829;28;20040;-63
2021/04/15 14:56:28;;;;;;;3.10;0.30;;;;;;;;;;10272876;28;20073;-63
2021/04/15 15:01:30;;;;;;;1.00;0.95;;;;;;;;;;10317479;28;20040;-63
2021/04/15 15:06:38;;;;;;;1.80;0.73;;;;;;;;;;10283227;28;20045;-64
2021/04/15 15:11:36;;;;;;;1.07;0.50;;;;;;;;;;10282686;28;20029;-62
2021/04/15 15:16:35;;;;;;;2.42;0.50;;;;;;;;;;10275154;28;20042;-63
2021/04/15 15:21:43;;;;;;;0.88;0.47;;;;;;;;;;10260471;28;20184;-64
2021/04/15 15:26:41;;;;;;;0.47;0.40;;;;;;;;;;10262229;28;20452;-63
2021/04/15 15:31:39;;;;;;;0.70;0.37;;;;;;;;;;10261223;28;20063;-62
2021/04/15 15:36:36;;;;;;;1.00;0.35;;;;;;;;;;10289392;28;20069;-63
2021/04/15 15:41:39;;;;;;;0.30;0.30;;;;;;;;;;10305353;28;20044;-63
2021/04/15 15:46:40;;;;;;;0.25;0.25;;;;;;;;;;10311442;28;20041;-62
2021/04/15 15:51:37;;;;;;;0.30;0.30;;;;;;;;;;10313658;28;20033;-63
2021/04/15 15:56:35;;;;;;;2.57;0.30;;;;;;;;;;10302094;28;20033;-63
2021/04/15 16:01:32;;;;;;;1.13;0.30;;;;;;;;;;10307180;28;20091;-62
2021/04/15 16:06:29;;;;;;;1.27;0.40;;;;;;;;;;10286600;28;20041;-63
2021/04/15 16:11:30;;;;;;;0.30;0.20;;;;;;;;;;10265787;28;20507;-63
2021/04/15 16:16:28;;;;;;;0.20;0.20;;;;;;;;;;10260421;28;20056;-63
2021/04/15 16:21:30;;;;;;;0.23;0.23;;;;;;;;;;10262374;28;20045;-63
2021/04/15 16:26:27;;;;;;;0.82;0.30;;;;;;;;;;10263630;28;20085;-63
2021/04/15 16:31:25;;;;;;;0.30;0.30;;;;;;;;;;10291921;28;20132;-63
2021/04/15 16:36:22;;;;;;;0.20;0.20;;;;;;;;;;10282121;28;20883;-62
2021/04/15 16:41:20;;;;;;;2.63;0.63;;;;;;;;;;10262164;28;20049;-63
2021/04/15 16:46:17;;;;;;;0.63;0.32;;;;;;;;;;10267079;28;20037;-62
2021/04/15 16:51:15;;;;;;;0.83;0.37;;;;;;;;;;10271328;28;20304;-62
2021/04/15 16:56:12;;;;;;;0.67;0.43;;;;;;;;;;10267748;28;20042;-63
2021/04/15 17:01:10;;;;;;;3.07;0.80;;;;;;;;;;10275109;28;20415;-63
2021/04/15 17:06:07;;;;;;;1.50;0.40;;;;;;;;;;10268777;28;20037;-63
2021/04/15 17:11:05;;;;;;;1.70;0.20;;;;;;;;;;10264096;28;20167;-63
2021/04/15 17:16:04;;;;;;;1.03;0.73;;;;;;;;;;10259656;28;20037;-63
2021/04/15 17:21:02;;;;;;;1.58;0.57;;;;;;;;;;10264241;28;20575;-63
2021/04/15 17:26:00;;;;;;;1.02;0.35;;;;;;;;;;10260813;28;20509;-63
2021/04/15 17:30:58;;;;;;;0.90;0.40;;;;;;;;;;10279665;28;20432;-64
2021/04/15 17:35:56;;;;;;;0.47;0.30;;;;;;;;;;10299415;28;20623;-62
2021/04/15 17:40:56;;;;;;;1.47;0.50;;;;;;;;;;10287294;28;20045;-65
2021/04/15 17:45:57;;;;;;;0.40;0.40;;;;;;;;;;10282226;28;20311;-66
2021/04/15 17:51:00;;;;;;;0.73;0.50;;;;;;;;;;10281047;28;20461;-64
2021/04/15 17:55:58;;;;;;;2.70;0.77;;;;;;;;;;10295685;28;20091;-63
2021/04/15 18:00:57;;;;;;;0.30;0.30;;;;;;;;;;10296524;28;20049;-64
2021/04/15 18:06:01;;;;;;;0.28;0.28;;;;;;;;;;10306533;28;20487;-64
2021/04/15 18:10:59;;;;;;;3.25;0.40;;;;;;;;;;10282191;28;20037;-63
2021/04/15 18:15:57;;;;;;;2.80;0.45;;;;;;;;;;10294460;28;20456;-63
2021/04/15 18:20:55;;;;;;;1.73;0.50;;;;;;;;;;10284443;28;20049;-63
2021/04/15 18:25:53;;;;;;;0.40;0.30;;;;;;;;;;10302457;28;20520;-62
2021/04/15 18:30:52;;;;;;;0.20;0.20;;;;;;;;;;10292690;28;20295;-63
2021/04/15 18:35:49;;;;;;;1.80;0.55;;;;;;;;;;10298290;28;20041;-63
2021/04/15 18:40:49;;;;;;;0.80;0.80;;;;;;;;;;10293271;28;20033;-63
2021/04/15 18:45:47;;;;;;;0.32;0.32;;;;;;;;;;10286211;28;20276;-63
2021/04/15 18:50:45;;;;;;;2.28;0.52;;;;;;;;;;10294035;28;20033;-63
2021/04/15 18:55:42;;;;;;;0.68;0.68;;;;;;;;;;10291355;28;20128;-63
2021/04/15 19:00:45;;;;;;;0.30;0.30;;;;;;;;;;10301151;28;20063;-63
2021/04/15 19:05:42;;;;;;;2.30;1.10;;;;;;;;;;10292419;28;20051;-62
2021/04/15 19:10:41;;;;;;;3.00;0.60;;;;;;;;;;10279576;28;20509;-63
2021/04/15 19:15:39;;;;;;;3.35;0.50;;;;;;;;;;10242169;28;20029;-63
2021/04/15 19:20:37;;;;;;;0.87;0.60;;;;;;;;;;10246700;28;20502;-65
2021/04/15 19:25:34;;;;;;;0.63;0.60;;;;;;;;;;10252161;28;20041;-64
2021/04/15 19:30:33;;;;;;;1.17;0.27;;;;;;;;;;10236891;28;20296;-64
2021/04/15 19:35:30;;;;;;;1.17;0.47;;;;;;;;;;10242124;28;20132;-60
2021/04/15 19:40:29;;;;;;;4.53;0.97;;;;;;;;;;10252039;28;20034;-65
2021/04/15 19:45:27;;;;;;;2.00;0.75;;;;;;;;;;10244636;28;20034;-65
2021/04/15 19:50:30;;;;;;;1.85;0.68;;;;;;;;;;10246542;28;20118;-64
2021/04/15 19:55:28;;;;;;;0.20;0.20;;;;;;;;;;10248932;28;20428;-65
2021/04/15 20:00:26;;;;;;;0.20;0.20;;;;;;;;;;10242731;28;20597;-65
2021/04/15 20:05:24;;;;;;;0.30;0.30;;;;;;;;;;10250727;28;20075;-64
2021/04/15 20:10:23;;;;;;;2.05;0.47;;;;;;;;;;10243801;28;20041;-65
2021/04/15 20:15:21;;;;;;;0.82;0.50;;;;;;;;;;10256375;28;20124;-65
2021/04/15 20:20:19;;;;;;;0.30;0.30;;;;;;;;;;10245210;28;21547;-64
2021/04/15 20:25:17;;;;;;;3.50;0.80;;;;;;;;;;10252480;28;20079;-65
2021/04/15 20:30:17;;;;;;;4.50;1.10;;;;;;;;;;10249163;28;20299;-65
2021/04/15 20:35:15;;;;;;;3.05;1.05;;;;;;;;;;10254693;28;20045;-66
2021/04/15 20:40:14;;;;;;;6.05;1.23;;;;;;;;;;10247988;28;20046;-65
2021/04/15 20:45:12;;;;;;;3.92;1.48;;;;;;;;;;10252955;28;20198;-64
2021/04/15 20:50:10;;;;;;;4.80;1.20;;;;;;;;;;10260442;28;20064;-65
2021/04/15 20:55:09;;;;;;;4.90;1.00;;;;;;;;;;10253335;28;20045;-64
2021/04/15 21:00:14;;;;;;;2.25;0.77;;;;;;;;;;10259467;28;20196;-65
2021/04/15 21:05:12;;;;;;;5.30;1.02;;;;;;;;;;10268066;28;20447;-65
2021/04/15 21:10:15;;;;;;;2.00;1.33;;;;;;;;;;10303573;28;20033;-64
2021/04/15 21:15:13;;;;;;;3.92;1.05;;;;;;;;;;10294373;28;20033;-65
2021/04/15 21:20:11;;;;;;;4.33;0.90;;;;;;;;;;10299754;28;20048;-65
2021/04/15 21:25:09;;;;;;;2.20;0.55;;;;;;;;;;10295260;28;20049;-64
2021/04/15 21:30:07;;;;;;;;;;;;;;;;;;10297052;28;20102;-64
2021/04/15 21:35:04;;;;;;;6.63;0.93;;;;;;;;;;10295548;28;19989;-64
2021/04/15 21:40:03;;;;;;;5.50;0.80;;;;;;;;;;10292779;28;20033;-64
2021/04/15 21:45:00;;;;;;;3.65;0.70;;;;;;;;;;10299743;28;20409;-65
2021/04/15 21:49:58;;;;;;;5.27;0.83;;;;;;;;;;10301584;28;20051;-66
2021/04/15 21:54:55;;;;;;;5.43;1.00;;;;;;;;;;10285983;28;20041;-64
2021/04/15 21:59:53;;;;;;;2.03;0.90;;;;;;;;;;10289564;28;20115;-63
2021/04/15 22:04:50;;;;;;;1.87;0.90;;;;;;;;;;10289086;28;20569;-62
2021/04/15 22:09:47;;;;;;;6.33;1.10;;;;;;;;;;10294421;28;20064;-62
2021/04/15 22:14:45;;;;;;;0.20;0.20;;;;;;;;;;10291176;28;20423;-63
2021/04/15 22:19:42;;;;;;;0.37;0.37;;;;;;;;;;10293840;28;20399;-62
2021/04/15 22:24:41;;;;;;;3.50;0.60;;;;;;;;;;10274089;28;20037;-63
2021/04/15 22:29:38;;;;;;;0.32;0.32;;;;;;;;;;10291691;28;20044;-62
2021/04/15 22:34:36;;;;;;;0.83;0.83;;;;;;;;;;10291984;28;20040;-67
2021/04/15 22:39:34;;;;;;;4.53;1.30;;;;;;;;;;10294314;28;20600;-66
2021/04/15 22:44:31;;;;;;;1.03;0.47;;;;;;;;;;10296535;28;20093;-65
2021/04/15 22:49:28;;;;;;;3.30;1.00;;;;;;;;;;10298706;28;20436;-66
2021/04/15 22:54:26;;;;;;;2.03;1.13;;;;;;;;;;10296689;28;20037;-64
2021/04/15 22:59:23;;;;;;;3.00;1.20;;;;;;;;;;10297131;28;20041;-65
2021/04/15 23:04:21;;;;;;;3.63;1.23;;;;;;;;;;10292995;28;20051;-66
2021/04/15 23:09:18;;;;;;;2.17;1.30;;;;;;;;;;10293342;28;20043;-65
2021/04/15 23:14:16;;;;;;;2.07;0.80;;;;;;;;;;10297440;28;20038;-64
2021/04/15 23:19:13;;;;;;;3.63;1.70;;;;;;;;;;10297330;28;20092;-64
2021/04/15 23:24:10;;;;;;;3.27;1.00;;;;;;;;;;10294588;28;20507;-65
2021/04/15 23:29:08;;;;;;;0.77;0.73;;;;;;;;;;10294452;28;20106;-65
2021/04/15 23:34:05;;;;;;;1.33;0.93;;;;;;;;;;10299030;28;20078;-65
2021/04/15 23:39:04;;;;;;;1.73;0.83;;;;;;;;;;10292062;28;20099;-66
2021/04/15 23:44:01;;;;;;;2.83;0.82;;;;;;;;;;10297832;28;20029;-66
2021/04/15 23:48:59;;;;;;;0.97;0.77;;;;;;;;;;10297349;28;20463;-63
2021/04/15 23:53:56;;;;;;;0.80;0.80;;;;;;;;;;10295058;28;20078;-63
2021/04/15 23:58:53;;;;;;;0.47;0.47;;;;;;;;;;10297608;28;20044;-63
